sensor_id;sensor_type;location;lat;lon;timestamp;P1;durP1;ratioP1;P2;durP2;ratioP2
58302;SDS011;44109;52.398;7.024;2023-03-23T00:00:29;11.43;;;7.13;;
58302;SDS011;44109;52.398;7.024;2023-03-23T00:02:57;9.77;;;5.05;;
58302;SDS011;44109;52.398;7.024;2023-03-23T00:05:25;9.07;;;5.88;;
58302;SDS011;44109;52.398;7.024;2023-03-23T00:07:54;10.43;;;5.60;;
58302;SDS011;44109;52.398;7.024;2023-03-23T00:10:22;11.38;;;6.85;;
58302;SDS011;44109;52.398;7.024;2023-03-23T00:12:51;8.55;;;5.53;;
58302;SDS011;44109;52.398;7.024;2023-03-23T00:15:19;7.43;;;5.55;;
58302;SDS011;44109;52.398;7.024;2023-03-23T00:17:50;7.20;;;4.85;;
58302;SDS011;44109;52.398;7.024;2023-03-23T00:20:18;9.25;;;5.53;;
58302;SDS011;44109;52.398;7.024;2023-03-23T00:22:49;10.98;;;6.47;;
58302;SDS011;44109;52.398;7.024;2023-03-23T00:25:17;10.43;;;7.22;;
58302;SDS011;44109;52.398;7.024;2023-03-23T00:27:45;11.15;;;5.75;;
58302;SDS011;44109;52.398;7.024;2023-03-23T00:30:14;9.77;;;5.93;;
58302;SDS011;44109;52.398;7.024;2023-03-23T00:32:43;8.05;;;4.88;;
58302;SDS011;44109;52.398;7.024;2023-03-23T00:35:11;11.80;;;5.82;;
58302;SDS011;44109;52.398;7.024;2023-03-23T00:37:38;6.18;;;4.57;;
58302;SDS011;44109;52.398;7.024;2023-03-23T00:40:06;10.98;;;6.43;;
58302;SDS011;44109;52.398;7.024;2023-03-23T00:42:36;8.60;;;4.47;;
58302;SDS011;44109;52.398;7.024;2023-03-23T00:45:04;14.07;;;5.72;;
58302;SDS011;44109;52.398;7.024;2023-03-23T00:47:37;9.57;;;5.40;;
58302;SDS011;44109;52.398;7.024;2023-03-23T00:50:07;9.45;;;5.68;;
58302;SDS011;44109;52.398;7.024;2023-03-23T00:52:35;10.32;;;5.22;;
58302;SDS011;44109;52.398;7.024;2023-03-23T00:55:03;8.75;;;5.43;;
58302;SDS011;44109;52.398;7.024;2023-03-23T00:57:32;8.00;;;5.00;;
58302;SDS011;44109;52.398;7.024;2023-03-23T01:00:00;8.60;;;5.15;;
58302;SDS011;44109;52.398;7.024;2023-03-23T01:02:40;7.88;;;5.13;;
58302;SDS011;44109;52.398;7.024;2023-03-23T01:05:10;8.38;;;3.78;;
58302;SDS011;44109;52.398;7.024;2023-03-23T01:07:38;8.25;;;4.57;;
58302;SDS011;44109;52.398;7.024;2023-03-23T01:10:06;9.02;;;4.47;;
58302;SDS011;44109;52.398;7.024;2023-03-23T01:12:34;9.45;;;4.95;;
58302;SDS011;44109;52.398;7.024;2023-03-23T01:15:02;8.48;;;5.35;;
58302;SDS011;44109;52.398;7.024;2023-03-23T01:17:33;7.68;;;4.90;;
58302;SDS011;44109;52.398;7.024;2023-03-23T01:20:03;9.35;;;4.35;;
58302;SDS011;44109;52.398;7.024;2023-03-23T01:22:32;8.52;;;3.35;;
58302;SDS011;44109;52.398;7.024;2023-03-23T01:25:00;8.73;;;4.32;;
58302;SDS011;44109;52.398;7.024;2023-03-23T01:27:28;5.68;;;3.17;;
58302;SDS011;44109;52.398;7.024;2023-03-23T01:29:56;5.60;;;3.28;;
58302;SDS011;44109;52.398;7.024;2023-03-23T01:32:24;9.18;;;4.07;;
58302;SDS011;44109;52.398;7.024;2023-03-23T01:34:52;5.30;;;3.35;;
58302;SDS011;44109;52.398;7.024;2023-03-23T01:37:21;7.07;;;4.03;;
58302;SDS011;44109;52.398;7.024;2023-03-23T01:39:52;11.15;;;4.35;;
58302;SDS011;44109;52.398;7.024;2023-03-23T01:42:21;8.25;;;4.80;;
58302;SDS011;44109;52.398;7.024;2023-03-23T01:48:04;7.38;;;4.05;;
58302;SDS011;44109;52.398;7.024;2023-03-23T01:50:44;8.98;;;3.97;;
58302;SDS011;44109;52.398;7.024;2023-03-23T01:53:22;5.25;;;3.45;;
58302;SDS011;44109;52.398;7.024;2023-03-23T01:56:00;7.85;;;4.50;;
58302;SDS011;44109;52.398;7.024;2023-03-23T01:58:30;7.63;;;4.13;;
58302;SDS011;44109;52.398;7.024;2023-03-23T02:01:02;7.45;;;3.17;;
58302;SDS011;44109;52.398;7.024;2023-03-23T02:03:34;7.50;;;4.03;;
58302;SDS011;44109;52.398;7.024;2023-03-23T02:06:05;7.65;;;3.33;;
58302;SDS011;44109;52.398;7.024;2023-03-23T02:08:35;5.47;;;3.17;;
58302;SDS011;44109;52.398;7.024;2023-03-23T02:11:11;4.50;;;3.63;;
58302;SDS011;44109;52.398;7.024;2023-03-23T02:13:41;7.03;;;3.88;;
58302;SDS011;44109;52.398;7.024;2023-03-23T02:16:11;6.25;;;3.83;;
58302;SDS011;44109;52.398;7.024;2023-03-23T02:19:00;5.78;;;3.30;;
58302;SDS011;44109;52.398;7.024;2023-03-23T02:25:21;6.60;;;3.58;;
58302;SDS011;44109;52.398;7.024;2023-03-23T02:28:25;5.30;;;3.60;;
58302;SDS011;44109;52.398;7.024;2023-03-23T02:31:30;4.15;;;2.83;;
58302;SDS011;44109;52.398;7.024;2023-03-23T02:34:34;5.35;;;3.47;;
58302;SDS011;44109;52.398;7.024;2023-03-23T02:37:09;5.80;;;3.38;;
58302;SDS011;44109;52.398;7.024;2023-03-23T02:39:43;5.22;;;3.40;;
58302;SDS011;44109;52.398;7.024;2023-03-23T02:44:49;4.40;;;3.22;;
58302;SDS011;44109;52.398;7.024;2023-03-23T02:47:22;4.47;;;3.50;;
58302;SDS011;44109;52.398;7.024;2023-03-23T02:49:56;6.97;;;3.20;;
58302;SDS011;44109;52.398;7.024;2023-03-23T02:52:27;6.25;;;3.30;;
58302;SDS011;44109;52.398;7.024;2023-03-23T02:54:59;5.65;;;3.63;;
58302;SDS011;44109;52.398;7.024;2023-03-23T02:57:29;4.10;;;3.00;;
58302;SDS011;44109;52.398;7.024;2023-03-23T02:59:58;5.20;;;3.45;;
58302;SDS011;44109;52.398;7.024;2023-03-23T03:02:26;6.53;;;3.50;;
58302;SDS011;44109;52.398;7.024;2023-03-23T03:05:01;4.38;;;2.65;;
58302;SDS011;44109;52.398;7.024;2023-03-23T03:07:44;5.97;;;3.50;;
58302;SDS011;44109;52.398;7.024;2023-03-23T03:10:26;5.55;;;3.10;;
58302;SDS011;44109;52.398;7.024;2023-03-23T03:13:02;5.40;;;2.67;;
58302;SDS011;44109;52.398;7.024;2023-03-23T03:15:40;5.22;;;3.45;;
58302;SDS011;44109;52.398;7.024;2023-03-23T03:18:30;4.95;;;3.50;;
58302;SDS011;44109;52.398;7.024;2023-03-23T03:21:07;3.13;;;2.45;;
58302;SDS011;44109;52.398;7.024;2023-03-23T03:23:41;4.78;;;3.10;;
58302;SDS011;44109;52.398;7.024;2023-03-23T03:26:12;6.15;;;3.10;;
58302;SDS011;44109;52.398;7.024;2023-03-23T03:28:43;8.35;;;3.92;;
58302;SDS011;44109;52.398;7.024;2023-03-23T03:31:15;5.72;;;3.95;;
58302;SDS011;44109;52.398;7.024;2023-03-23T03:33:47;7.60;;;4.15;;
58302;SDS011;44109;52.398;7.024;2023-03-23T03:36:17;7.88;;;3.63;;
58302;SDS011;44109;52.398;7.024;2023-03-23T03:38:49;4.95;;;3.75;;
58302;SDS011;44109;52.398;7.024;2023-03-23T03:41:18;9.85;;;4.78;;
58302;SDS011;44109;52.398;7.024;2023-03-23T03:43:47;7.85;;;4.68;;
58302;SDS011;44109;52.398;7.024;2023-03-23T03:46:14;6.18;;;4.07;;
58302;SDS011;44109;52.398;7.024;2023-03-23T03:48:42;6.80;;;3.78;;
58302;SDS011;44109;52.398;7.024;2023-03-23T03:51:09;7.70;;;5.13;;
58302;SDS011;44109;52.398;7.024;2023-03-23T03:53:38;6.20;;;3.38;;
58302;SDS011;44109;52.398;7.024;2023-03-23T03:56:06;9.25;;;4.78;;
58302;SDS011;44109;52.398;7.024;2023-03-23T03:58:34;6.68;;;4.07;;
58302;SDS011;44109;52.398;7.024;2023-03-23T04:01:02;7.30;;;4.75;;
58302;SDS011;44109;52.398;7.024;2023-03-23T04:03:30;11.10;;;4.57;;
58302;SDS011;44109;52.398;7.024;2023-03-23T04:05:58;7.18;;;3.60;;
58302;SDS011;44109;52.398;7.024;2023-03-23T04:08:26;5.40;;;4.35;;
58302;SDS011;44109;52.398;7.024;2023-03-23T04:10:55;6.15;;;4.30;;
58302;SDS011;44109;52.398;7.024;2023-03-23T04:13:23;7.30;;;4.20;;
58302;SDS011;44109;52.398;7.024;2023-03-23T04:15:51;8.55;;;4.07;;
58302;SDS011;44109;52.398;7.024;2023-03-23T04:18:18;7.90;;;4.63;;
58302;SDS011;44109;52.398;7.024;2023-03-23T04:20:47;4.97;;;3.60;;
58302;SDS011;44109;52.398;7.024;2023-03-23T04:23:16;10.13;;;5.70;;
58302;SDS011;44109;52.398;7.024;2023-03-23T04:25:47;7.35;;;3.85;;
58302;SDS011;44109;52.398;7.024;2023-03-23T04:28:19;5.95;;;3.40;;
58302;SDS011;44109;52.398;7.024;2023-03-23T04:30:49;5.78;;;3.45;;
58302;SDS011;44109;52.398;7.024;2023-03-23T04:33:18;4.75;;;3.38;;
58302;SDS011;44109;52.398;7.024;2023-03-23T04:35:47;8.43;;;4.55;;
58302;SDS011;44109;52.398;7.024;2023-03-23T04:38:16;4.82;;;3.78;;
58302;SDS011;44109;52.398;7.024;2023-03-23T04:40:46;6.18;;;4.38;;
58302;SDS011;44109;52.398;7.024;2023-03-23T04:43:18;6.25;;;4.93;;
58302;SDS011;44109;52.398;7.024;2023-03-23T04:45:51;8.25;;;5.45;;
58302;SDS011;44109;52.398;7.024;2023-03-23T04:48:22;6.82;;;3.95;;
58302;SDS011;44109;52.398;7.024;2023-03-23T04:50:49;10.35;;;6.18;;
58302;SDS011;44109;52.398;7.024;2023-03-23T04:53:17;7.60;;;4.50;;
58302;SDS011;44109;52.398;7.024;2023-03-23T04:55:46;5.80;;;4.15;;
58302;SDS011;44109;52.398;7.024;2023-03-23T04:58:15;7.05;;;5.28;;
58302;SDS011;44109;52.398;7.024;2023-03-23T05:00:45;4.88;;;3.65;;
58302;SDS011;44109;52.398;7.024;2023-03-23T05:03:15;5.78;;;3.97;;
58302;SDS011;44109;52.398;7.024;2023-03-23T05:05:43;6.22;;;4.43;;
58302;SDS011;44109;52.398;7.024;2023-03-23T05:08:17;7.47;;;4.47;;
58302;SDS011;44109;52.398;7.024;2023-03-23T05:10:49;6.85;;;4.85;;
58302;SDS011;44109;52.398;7.024;2023-03-23T05:13:19;5.40;;;4.35;;
58302;SDS011;44109;52.398;7.024;2023-03-23T05:15:49;10.18;;;5.72;;
58302;SDS011;44109;52.398;7.024;2023-03-23T05:18:17;6.10;;;4.80;;
58302;SDS011;44109;52.398;7.024;2023-03-23T05:20:46;7.25;;;4.68;;
58302;SDS011;44109;52.398;7.024;2023-03-23T05:23:14;6.18;;;3.90;;
58302;SDS011;44109;52.398;7.024;2023-03-23T05:25:42;6.63;;;4.05;;
58302;SDS011;44109;52.398;7.024;2023-03-23T05:28:10;6.13;;;4.03;;
58302;SDS011;44109;52.398;7.024;2023-03-23T05:30:38;5.70;;;3.75;;
58302;SDS011;44109;52.398;7.024;2023-03-23T05:33:11;13.18;;;4.43;;
58302;SDS011;44109;52.398;7.024;2023-03-23T05:35:38;8.30;;;4.93;;
58302;SDS011;44109;52.398;7.024;2023-03-23T05:38:06;6.82;;;3.72;;
58302;SDS011;44109;52.398;7.024;2023-03-23T05:40:34;7.25;;;4.07;;
58302;SDS011;44109;52.398;7.024;2023-03-23T05:43:01;11.85;;;5.32;;
58302;SDS011;44109;52.398;7.024;2023-03-23T05:45:29;6.93;;;4.50;;
58302;SDS011;44109;52.398;7.024;2023-03-23T05:47:57;6.07;;;4.25;;
58302;SDS011;44109;52.398;7.024;2023-03-23T05:50:26;7.22;;;4.15;;
58302;SDS011;44109;52.398;7.024;2023-03-23T05:52:54;8.18;;;4.90;;
58302;SDS011;44109;52.398;7.024;2023-03-23T05:55:23;7.75;;;4.57;;
58302;SDS011;44109;52.398;7.024;2023-03-23T05:57:50;5.93;;;4.40;;
58302;SDS011;44109;52.398;7.024;2023-03-23T06:00:18;7.38;;;4.40;;
58302;SDS011;44109;52.398;7.024;2023-03-23T06:02:49;5.88;;;3.60;;
58302;SDS011;44109;52.398;7.024;2023-03-23T06:05:17;8.98;;;4.32;;
58302;SDS011;44109;52.398;7.024;2023-03-23T06:07:46;9.10;;;4.70;;
58302;SDS011;44109;52.398;7.024;2023-03-23T06:10:14;11.35;;;4.93;;
58302;SDS011;44109;52.398;7.024;2023-03-23T06:12:42;13.27;;;5.00;;
58302;SDS011;44109;52.398;7.024;2023-03-23T06:15:11;4.95;;;3.95;;
58302;SDS011;44109;52.398;7.024;2023-03-23T06:17:40;7.07;;;4.20;;
58302;SDS011;44109;52.398;7.024;2023-03-23T06:20:08;8.68;;;4.82;;
58302;SDS011;44109;52.398;7.024;2023-03-23T06:22:37;8.00;;;4.15;;
58302;SDS011;44109;52.398;7.024;2023-03-23T06:25:09;10.88;;;3.72;;
58302;SDS011;44109;52.398;7.024;2023-03-23T06:27:38;7.25;;;3.75;;
58302;SDS011;44109;52.398;7.024;2023-03-23T06:30:06;7.43;;;3.83;;
58302;SDS011;44109;52.398;7.024;2023-03-23T06:32:36;6.05;;;3.28;;
58302;SDS011;44109;52.398;7.024;2023-03-23T06:35:05;9.73;;;3.55;;
58302;SDS011;44109;52.398;7.024;2023-03-23T06:37:35;9.38;;;4.90;;
58302;SDS011;44109;52.398;7.024;2023-03-23T06:40:03;6.90;;;3.25;;
58302;SDS011;44109;52.398;7.024;2023-03-23T06:42:34;8.52;;;3.70;;
58302;SDS011;44109;52.398;7.024;2023-03-23T06:45:01;5.55;;;2.92;;
58302;SDS011;44109;52.398;7.024;2023-03-23T06:47:30;6.72;;;3.65;;
58302;SDS011;44109;52.398;7.024;2023-03-23T06:49:58;10.50;;;3.75;;
58302;SDS011;44109;52.398;7.024;2023-03-23T06:52:26;8.15;;;3.80;;
58302;SDS011;44109;52.398;7.024;2023-03-23T06:54:53;8.95;;;3.45;;
58302;SDS011;44109;52.398;7.024;2023-03-23T06:57:21;8.65;;;3.13;;
58302;SDS011;44109;52.398;7.024;2023-03-23T06:59:50;7.63;;;3.33;;
58302;SDS011;44109;52.398;7.024;2023-03-23T07:02:18;6.10;;;3.13;;
58302;SDS011;44109;52.398;7.024;2023-03-23T07:04:45;5.75;;;2.88;;
58302;SDS011;44109;52.398;7.024;2023-03-23T07:07:13;7.82;;;2.75;;
58302;SDS011;44109;52.398;7.024;2023-03-23T07:09:44;8.60;;;3.35;;
58302;SDS011;44109;52.398;7.024;2023-03-23T07:12:12;6.68;;;2.60;;
58302;SDS011;44109;52.398;7.024;2023-03-23T07:14:40;6.05;;;3.17;;
58302;SDS011;44109;52.398;7.024;2023-03-23T07:17:09;5.57;;;2.40;;
58302;SDS011;44109;52.398;7.024;2023-03-23T07:19:37;7.32;;;3.60;;
58302;SDS011;44109;52.398;7.024;2023-03-23T07:22:05;6.18;;;2.55;;
58302;SDS011;44109;52.398;7.024;2023-03-23T07:24:33;6.03;;;2.72;;
58302;SDS011;44109;52.398;7.024;2023-03-23T07:27:02;7.97;;;2.95;;
58302;SDS011;44109;52.398;7.024;2023-03-23T07:29:29;6.95;;;3.00;;
58302;SDS011;44109;52.398;7.024;2023-03-23T07:32:00;4.95;;;2.55;;
58302;SDS011;44109;52.398;7.024;2023-03-23T07:34:30;5.15;;;2.53;;
58302;SDS011;44109;52.398;7.024;2023-03-23T07:36:58;3.83;;;1.30;;
58302;SDS011;44109;52.398;7.024;2023-03-23T07:39:26;3.80;;;1.02;;
58302;SDS011;44109;52.398;7.024;2023-03-23T07:41:53;2.47;;;0.93;;
58302;SDS011;44109;52.398;7.024;2023-03-23T07:44:21;4.57;;;1.23;;
58302;SDS011;44109;52.398;7.024;2023-03-23T07:46:50;4.70;;;1.52;;
58302;SDS011;44109;52.398;7.024;2023-03-23T07:49:18;3.45;;;1.10;;
58302;SDS011;44109;52.398;7.024;2023-03-23T07:51:47;3.95;;;1.00;;
58302;SDS011;44109;52.398;7.024;2023-03-23T07:54:15;3.05;;;1.17;;
58302;SDS011;44109;52.398;7.024;2023-03-23T07:56:42;4.95;;;1.40;;
58302;SDS011;44109;52.398;7.024;2023-03-23T07:59:11;5.35;;;1.58;;
58302;SDS011;44109;52.398;7.024;2023-03-23T08:01:39;6.13;;;2.28;;
58302;SDS011;44109;52.398;7.024;2023-03-23T08:04:07;4.40;;;1.40;;
58302;SDS011;44109;52.398;7.024;2023-03-23T08:06:34;8.02;;;1.85;;
58302;SDS011;44109;52.398;7.024;2023-03-23T08:09:04;4.72;;;1.70;;
58302;SDS011;44109;52.398;7.024;2023-03-23T08:11:34;4.07;;;1.75;;
58302;SDS011;44109;52.398;7.024;2023-03-23T08:14:02;4.78;;;1.75;;
58302;SDS011;44109;52.398;7.024;2023-03-23T08:16:31;4.18;;;1.45;;
58302;SDS011;44109;52.398;7.024;2023-03-23T08:18:58;5.35;;;1.83;;
58302;SDS011;44109;52.398;7.024;2023-03-23T08:21:26;3.45;;;1.60;;
58302;SDS011;44109;52.398;7.024;2023-03-23T08:23:55;3.38;;;1.27;;
58302;SDS011;44109;52.398;7.024;2023-03-23T08:26:24;5.30;;;1.83;;
58302;SDS011;44109;52.398;7.024;2023-03-23T08:28:53;5.68;;;1.70;;
58302;SDS011;44109;52.398;7.024;2023-03-23T08:31:20;2.92;;;1.55;;
58302;SDS011;44109;52.398;7.024;2023-03-23T08:33:48;4.68;;;2.00;;
58302;SDS011;44109;52.398;7.024;2023-03-23T08:36:16;7.10;;;2.17;;
58302;SDS011;44109;52.398;7.024;2023-03-23T08:38:43;3.30;;;1.40;;
58302;SDS011;44109;52.398;7.024;2023-03-23T08:41:11;4.47;;;1.63;;
58302;SDS011;44109;52.398;7.024;2023-03-23T08:43:40;4.43;;;1.60;;
58302;SDS011;44109;52.398;7.024;2023-03-23T08:46:07;3.92;;;1.90;;
58302;SDS011;44109;52.398;7.024;2023-03-23T08:48:36;5.00;;;1.45;;
58302;SDS011;44109;52.398;7.024;2023-03-23T08:51:05;4.35;;;1.98;;
58302;SDS011;44109;52.398;7.024;2023-03-23T08:53:34;6.05;;;2.75;;
58302;SDS011;44109;52.398;7.024;2023-03-23T08:56:03;3.65;;;1.80;;
58302;SDS011;44109;52.398;7.024;2023-03-23T08:58:32;3.95;;;1.80;;
58302;SDS011;44109;52.398;7.024;2023-03-23T09:01:02;5.88;;;2.38;;
58302;SDS011;44109;52.398;7.024;2023-03-23T09:03:32;5.82;;;2.13;;
58302;SDS011;44109;52.398;7.024;2023-03-23T09:06:00;4.88;;;2.42;;
58302;SDS011;44109;52.398;7.024;2023-03-23T09:08:31;6.72;;;3.03;;
58302;SDS011;44109;52.398;7.024;2023-03-23T09:11:01;7.10;;;2.63;;
58302;SDS011;44109;52.398;7.024;2023-03-23T09:13:31;6.78;;;2.80;;
58302;SDS011;44109;52.398;7.024;2023-03-23T09:15:59;7.53;;;3.25;;
58302;SDS011;44109;52.398;7.024;2023-03-23T09:18:28;7.85;;;4.28;;
58302;SDS011;44109;52.398;7.024;2023-03-23T09:20:57;5.93;;;2.83;;
58302;SDS011;44109;52.398;7.024;2023-03-23T09:23:26;6.47;;;3.53;;
58302;SDS011;44109;52.398;7.024;2023-03-23T09:25:54;7.00;;;2.72;;
58302;SDS011;44109;52.398;7.024;2023-03-23T09:28:22;5.35;;;2.60;;
58302;SDS011;44109;52.398;7.024;2023-03-23T09:30:49;6.63;;;2.85;;
58302;SDS011;44109;52.398;7.024;2023-03-23T09:33:18;4.60;;;2.35;;
58302;SDS011;44109;52.398;7.024;2023-03-23T09:35:47;4.85;;;2.40;;
58302;SDS011;44109;52.398;7.024;2023-03-23T09:38:14;10.52;;;2.45;;
58302;SDS011;44109;52.398;7.024;2023-03-23T09:40:43;6.88;;;2.28;;
58302;SDS011;44109;52.398;7.024;2023-03-23T09:43:29;6.97;;;2.53;;
58302;SDS011;44109;52.398;7.024;2023-03-23T09:46:19;6.15;;;2.65;;
58302;SDS011;44109;52.398;7.024;2023-03-23T09:49:02;5.78;;;2.42;;
58302;SDS011;44109;52.398;7.024;2023-03-23T09:51:42;5.78;;;2.58;;
58302;SDS011;44109;52.398;7.024;2023-03-23T09:54:17;6.60;;;2.47;;
58302;SDS011;44109;52.398;7.024;2023-03-23T09:56:49;6.22;;;2.58;;
58302;SDS011;44109;52.398;7.024;2023-03-23T09:59:20;5.53;;;1.98;;
58302;SDS011;44109;52.398;7.024;2023-03-23T10:01:55;6.57;;;3.03;;
58302;SDS011;44109;52.398;7.024;2023-03-23T10:04:32;6.25;;;2.58;;
58302;SDS011;44109;52.398;7.024;2023-03-23T10:07:10;5.70;;;2.53;;
58302;SDS011;44109;52.398;7.024;2023-03-23T10:09:41;7.35;;;2.08;;
58302;SDS011;44109;52.398;7.024;2023-03-23T10:12:23;5.55;;;2.20;;
58302;SDS011;44109;52.398;7.024;2023-03-23T10:15:04;5.68;;;2.08;;
58302;SDS011;44109;52.398;7.024;2023-03-23T10:17:44;4.60;;;2.22;;
58302;SDS011;44109;52.398;7.024;2023-03-23T10:20:25;3.83;;;1.95;;
58302;SDS011;44109;52.398;7.024;2023-03-23T10:23:08;4.88;;;2.35;;
58302;SDS011;44109;52.398;7.024;2023-03-23T10:25:51;7.15;;;2.13;;
58302;SDS011;44109;52.398;7.024;2023-03-23T10:28:34;6.30;;;2.42;;
58302;SDS011;44109;52.398;7.024;2023-03-23T10:31:05;5.70;;;1.88;;
58302;SDS011;44109;52.398;7.024;2023-03-23T10:33:40;3.75;;;1.75;;
58302;SDS011;44109;52.398;7.024;2023-03-23T10:36:12;6.00;;;2.83;;
58302;SDS011;44109;52.398;7.024;2023-03-23T10:38:49;4.93;;;1.70;;
58302;SDS011;44109;52.398;7.024;2023-03-23T10:41:24;9.32;;;2.30;;
58302;SDS011;44109;52.398;7.024;2023-03-23T10:43:52;8.50;;;2.45;;
58302;SDS011;44109;52.398;7.024;2023-03-23T10:46:26;4.70;;;2.20;;
58302;SDS011;44109;52.398;7.024;2023-03-23T10:49:04;7.60;;;2.60;;
58302;SDS011;44109;52.398;7.024;2023-03-23T10:51:40;5.18;;;2.00;;
58302;SDS011;44109;52.398;7.024;2023-03-23T10:54:24;8.05;;;2.35;;
58302;SDS011;44109;52.398;7.024;2023-03-23T10:56:59;10.15;;;2.05;;
58302;SDS011;44109;52.398;7.024;2023-03-23T10:59:27;4.55;;;1.70;;
58302;SDS011;44109;52.398;7.024;2023-03-23T11:01:59;4.50;;;2.13;;
58302;SDS011;44109;52.398;7.024;2023-03-23T11:04:39;4.75;;;2.00;;
58302;SDS011;44109;52.398;7.024;2023-03-23T11:07:12;6.72;;;2.47;;
58302;SDS011;44109;52.398;7.024;2023-03-23T11:09:53;6.13;;;1.85;;
58302;SDS011;44109;52.398;7.024;2023-03-23T11:12:24;6.65;;;1.90;;
58302;SDS011;44109;52.398;7.024;2023-03-23T11:14:52;6.95;;;1.83;;
58302;SDS011;44109;52.398;7.024;2023-03-23T11:17:53;5.70;;;1.83;;
58302;SDS011;44109;52.398;7.024;2023-03-23T11:20:24;6.50;;;1.50;;
58302;SDS011;44109;52.398;7.024;2023-03-23T11:22:54;4.95;;;1.65;;
58302;SDS011;44109;52.398;7.024;2023-03-23T11:25:24;6.00;;;2.20;;
58302;SDS011;44109;52.398;7.024;2023-03-23T11:27:52;7.50;;;2.33;;
58302;SDS011;44109;52.398;7.024;2023-03-23T11:30:24;6.47;;;1.92;;
58302;SDS011;44109;52.398;7.024;2023-03-23T11:32:58;4.85;;;2.05;;
58302;SDS011;44109;52.398;7.024;2023-03-23T11:35:29;4.97;;;1.70;;
58302;SDS011;44109;52.398;7.024;2023-03-23T11:37:57;9.25;;;2.85;;
58302;SDS011;44109;52.398;7.024;2023-03-23T11:40:29;6.65;;;2.35;;
58302;SDS011;44109;52.398;7.024;2023-03-23T11:43:07;8.70;;;2.45;;
58302;SDS011;44109;52.398;7.024;2023-03-23T11:45:40;6.72;;;1.58;;
58302;SDS011;44109;52.398;7.024;2023-03-23T11:48:24;4.68;;;1.75;;
58302;SDS011;44109;52.398;7.024;2023-03-23T11:51:10;7.18;;;2.03;;
58302;SDS011;44109;52.398;7.024;2023-03-23T11:53:45;6.22;;;2.20;;
58302;SDS011;44109;52.398;7.024;2023-03-23T11:56:25;8.05;;;2.20;;
58302;SDS011;44109;52.398;7.024;2023-03-23T11:58:57;7.32;;;1.63;;
58302;SDS011;44109;52.398;7.024;2023-03-23T12:01:32;7.68;;;2.45;;
58302;SDS011;44109;52.398;7.024;2023-03-23T12:04:19;7.18;;;1.75;;
58302;SDS011;44109;52.398;7.024;2023-03-23T12:07:13;6.95;;;2.15;;
58302;SDS011;44109;52.398;7.024;2023-03-23T12:09:57;8.70;;;2.67;;
58302;SDS011;44109;52.398;7.024;2023-03-23T12:12:49;8.27;;;2.80;;
58302;SDS011;44109;52.398;7.024;2023-03-23T12:15:29;5.90;;;2.13;;
58302;SDS011;44109;52.398;7.024;2023-03-23T12:18:06;4.90;;;1.65;;
58302;SDS011;44109;52.398;7.024;2023-03-23T12:20:55;8.63;;;2.20;;
58302;SDS011;44109;52.398;7.024;2023-03-23T12:23:41;9.68;;;2.38;;
58302;SDS011;44109;52.398;7.024;2023-03-23T12:26:25;7.22;;;2.30;;
58302;SDS011;44109;52.398;7.024;2023-03-23T12:29:08;6.90;;;2.65;;
58302;SDS011;44109;52.398;7.024;2023-03-23T12:32:02;7.50;;;2.20;;
58302;SDS011;44109;52.398;7.024;2023-03-23T12:34:54;7.60;;;2.15;;
58302;SDS011;44109;52.398;7.024;2023-03-23T12:37:38;7.82;;;1.88;;
58302;SDS011;44109;52.398;7.024;2023-03-23T12:40:28;8.38;;;2.55;;
58302;SDS011;44109;52.398;7.024;2023-03-23T12:43:28;7.13;;;2.55;;
58302;SDS011;44109;52.398;7.024;2023-03-23T12:46:14;10.27;;;2.50;;
58302;SDS011;44109;52.398;7.024;2023-03-23T12:49:07;6.60;;;1.60;;
58302;SDS011;44109;52.398;7.024;2023-03-23T12:51:44;6.40;;;1.83;;
58302;SDS011;44109;52.398;7.024;2023-03-23T12:54:26;6.90;;;1.92;;
58302;SDS011;44109;52.398;7.024;2023-03-23T12:57:04;6.20;;;1.67;;
58302;SDS011;44109;52.398;7.024;2023-03-23T12:59:40;9.00;;;2.38;;
58302;SDS011;44109;52.398;7.024;2023-03-23T13:02:18;7.57;;;2.80;;
58302;SDS011;44109;52.398;7.024;2023-03-23T13:04:51;6.07;;;2.05;;
58302;SDS011;44109;52.398;7.024;2023-03-23T13:07:32;9.35;;;2.47;;
58302;SDS011;44109;52.398;7.024;2023-03-23T13:10:13;5.63;;;1.88;;
58302;SDS011;44109;52.398;7.024;2023-03-23T13:12:59;12.07;;;2.42;;
58302;SDS011;44109;52.398;7.024;2023-03-23T13:15:29;8.38;;;2.20;;
58302;SDS011;44109;52.398;7.024;2023-03-23T13:18:10;4.60;;;1.52;;
58302;SDS011;44109;52.398;7.024;2023-03-23T13:20:49;7.80;;;1.58;;
58302;SDS011;44109;52.398;7.024;2023-03-23T13:23:28;7.68;;;2.33;;
58302;SDS011;44109;52.398;7.024;2023-03-23T13:26:03;10.45;;;2.78;;
58302;SDS011;44109;52.398;7.024;2023-03-23T13:28:44;6.47;;;2.10;;
58302;SDS011;44109;52.398;7.024;2023-03-23T13:31:21;8.70;;;2.05;;
58302;SDS011;44109;52.398;7.024;2023-03-23T13:34:01;8.43;;;2.42;;
58302;SDS011;44109;52.398;7.024;2023-03-23T13:36:38;7.93;;;2.58;;
58302;SDS011;44109;52.398;7.024;2023-03-23T13:39:17;7.50;;;2.08;;
58302;SDS011;44109;52.398;7.024;2023-03-23T13:41:59;4.78;;;1.55;;
58302;SDS011;44109;52.398;7.024;2023-03-23T13:44:43;10.73;;;2.58;;
58302;SDS011;44109;52.398;7.024;2023-03-23T13:47:26;6.10;;;1.85;;
58302;SDS011;44109;52.398;7.024;2023-03-23T13:50:09;4.78;;;1.77;;
58302;SDS011;44109;52.398;7.024;2023-03-23T13:52:51;5.43;;;2.33;;
58302;SDS011;44109;52.398;7.024;2023-03-23T13:55:29;4.80;;;1.65;;
58302;SDS011;44109;52.398;7.024;2023-03-23T13:58:21;3.20;;;1.58;;
58302;SDS011;44109;52.398;7.024;2023-03-23T14:01:09;5.35;;;1.52;;
58302;SDS011;44109;52.398;7.024;2023-03-23T14:03:42;6.90;;;1.75;;
58302;SDS011;44109;52.398;7.024;2023-03-23T14:06:18;7.75;;;2.00;;
58302;SDS011;44109;52.398;7.024;2023-03-23T14:08:50;3.28;;;1.55;;
58302;SDS011;44109;52.398;7.024;2023-03-23T14:11:23;4.25;;;1.75;;
58302;SDS011;44109;52.398;7.024;2023-03-23T14:14:01;3.40;;;1.73;;
58302;SDS011;44109;52.398;7.024;2023-03-23T14:16:36;6.80;;;1.80;;
58302;SDS011;44109;52.398;7.024;2023-03-23T14:21:50;7.10;;;1.88;;
58302;SDS011;44109;52.398;7.024;2023-03-23T14:24:22;4.70;;;1.52;;
58302;SDS011;44109;52.398;7.024;2023-03-23T14:27:01;4.38;;;1.55;;
58302;SDS011;44109;52.398;7.024;2023-03-23T14:29:36;3.57;;;0.87;;
58302;SDS011;44109;52.398;7.024;2023-03-23T14:32:05;5.07;;;1.48;;
58302;SDS011;44109;52.398;7.024;2023-03-23T14:34:36;4.53;;;1.50;;
58302;SDS011;44109;52.398;7.024;2023-03-23T14:37:08;5.80;;;1.60;;
58302;SDS011;44109;52.398;7.024;2023-03-23T14:39:39;5.10;;;0.93;;
58302;SDS011;44109;52.398;7.024;2023-03-23T14:42:13;5.10;;;1.13;;
58302;SDS011;44109;52.398;7.024;2023-03-23T14:44:43;4.70;;;1.17;;
58302;SDS011;44109;52.398;7.024;2023-03-23T14:47:16;3.40;;;1.17;;
58302;SDS011;44109;52.398;7.024;2023-03-23T14:49:52;8.00;;;1.92;;
58302;SDS011;44109;52.398;7.024;2023-03-23T14:52:25;4.07;;;1.60;;
58302;SDS011;44109;52.398;7.024;2023-03-23T14:55:06;2.75;;;1.27;;
58302;SDS011;44109;52.398;7.024;2023-03-23T14:57:40;2.40;;;1.20;;
58302;SDS011;44109;52.398;7.024;2023-03-23T15:00:11;6.88;;;1.80;;
58302;SDS011;44109;52.398;7.024;2023-03-23T15:02:42;2.63;;;1.30;;
58302;SDS011;44109;52.398;7.024;2023-03-23T15:05:15;1.92;;;1.13;;
58302;SDS011;44109;52.398;7.024;2023-03-23T15:07:50;3.90;;;1.33;;
58302;SDS011;44109;52.398;7.024;2023-03-23T15:10:22;2.97;;;1.15;;
58302;SDS011;44109;52.398;7.024;2023-03-23T15:12:51;3.05;;;1.08;;
58302;SDS011;44109;52.398;7.024;2023-03-23T15:15:25;3.60;;;1.67;;
58302;SDS011;44109;52.398;7.024;2023-03-23T15:17:56;4.65;;;1.85;;
58302;SDS011;44109;52.398;7.024;2023-03-23T15:20:28;3.83;;;2.05;;
58302;SDS011;44109;52.398;7.024;2023-03-23T15:23:06;5.15;;;1.63;;
58302;SDS011;44109;52.398;7.024;2023-03-23T15:25:40;4.50;;;1.52;;
58302;SDS011;44109;52.398;7.024;2023-03-23T15:28:17;5.72;;;1.80;;
58302;SDS011;44109;52.398;7.024;2023-03-23T15:30:48;3.88;;;1.80;;